createdAt,value
2019-04-07T00:00:51.904Z,35.60
2019-04-07T00:01:57.330Z,37.10
2019-04-07T00:03:02.614Z,39.50
2019-04-07T00:04:07.774Z,38.15
2019-04-07T00:05:14.651Z,37.35
2019-04-07T00:06:20.263Z,37.45
2019-04-07T00:07:25.420Z,39.03
2019-04-07T00:08:32.923Z,36.53
2019-04-07T00:09:39.988Z,38.65
2019-04-07T00:10:45.324Z,38.60
2019-04-07T00:11:50.767Z,38.45
2019-04-07T00:12:56.225Z,37.67
2019-04-07T00:14:01.397Z,37.48
2019-04-07T00:15:07.285Z,36.60
2019-04-07T00:16:12.571Z,37.35
2019-04-07T00:17:17.923Z,39.60
2019-04-07T00:18:23.229Z,36.42
2019-04-07T00:19:28.407Z,35.30
2019-04-07T00:20:33.584Z,37.10
2019-04-07T00:21:38.667Z,38.00
2019-04-07T00:22:45.303Z,36.25
2019-04-07T00:23:50.737Z,37.73
2019-04-07T00:24:56.225Z,39.50
2019-04-07T00:26:02.256Z,38.80
2019-04-07T00:27:07.469Z,39.78
2019-04-07T00:28:12.585Z,40.78
2019-04-07T00:29:17.687Z,39.58
2019-04-07T00:30:22.825Z,39.75
2019-04-07T00:31:27.940Z,39.63
2019-04-07T00:32:32.984Z,38.02
2019-04-07T00:33:38.078Z,36.53
2019-04-07T00:34:43.168Z,38.13
2019-04-07T00:35:48.396Z,37.00
2019-04-07T00:36:53.638Z,35.38
2019-04-07T00:37:59.450Z,38.33
2019-04-07T00:39:06.885Z,36.08
2019-04-07T00:40:13.068Z,37.42
2019-04-07T00:41:19.933Z,38.05
2019-04-07T00:42:25.876Z,37.70
2019-04-07T00:43:31.694Z,36.05
2019-04-07T00:44:36.948Z,38.75
2019-04-07T00:45:42.587Z,36.88
2019-04-07T00:46:47.979Z,37.75
2019-04-07T00:47:53.680Z,37.60
2019-04-07T00:48:59.516Z,37.20
2019-04-07T00:50:05.338Z,37.17
2019-04-07T00:51:10.474Z,39.75
2019-04-07T00:52:17.247Z,39.98
2019-04-07T00:53:22.375Z,39.83
2019-04-07T00:54:28.033Z,41.20
2019-04-07T00:55:33.446Z,42.75
2019-04-07T00:56:40.123Z,45.38
2019-04-07T00:57:45.636Z,48.90
2019-04-07T00:58:50.794Z,54.33
2019-04-07T00:59:56.117Z,52.53
2019-04-07T01:01:01.457Z,55.75
2019-04-07T01:02:06.965Z,53.38
2019-04-07T01:03:12.312Z,51.95
2019-04-07T01:04:17.681Z,50.92
2019-04-07T01:05:34.159Z,50.43
2019-04-07T01:06:29.896Z,50.92
2019-04-07T01:07:35.500Z,50.20
2019-04-07T01:08:42.514Z,49.93
2019-04-07T01:09:47.971Z,49.80
2019-04-07T01:10:53.354Z,52.08
2019-04-07T01:11:58.651Z,49.40
2019-04-07T01:13:04.416Z,49.73
2019-04-07T01:14:10.298Z,50.70
2019-04-07T01:15:17.643Z,50.30
2019-04-07T01:16:22.964Z,47.78
2019-04-07T01:17:28.512Z,48.85
2019-04-07T01:18:35.489Z,46.30
2019-04-07T01:19:40.970Z,46.90
2019-04-07T01:20:46.750Z,46.35
2019-04-07T01:21:51.940Z,47.45
2019-04-07T01:22:57.353Z,46.25
2019-04-07T01:24:02.640Z,43.87
2019-04-07T01:25:08.372Z,44.05
2019-04-07T01:26:14.154Z,45.28
2019-04-07T01:27:19.417Z,45.78
2019-04-07T01:28:26.243Z,44.05
2019-04-07T01:29:32.086Z,46.55
2019-04-07T01:30:37.844Z,44.08
2019-04-07T01:31:43.185Z,44.30
2019-04-07T01:32:48.344Z,43.13
2019-04-07T01:33:53.539Z,42.62
2019-04-07T01:34:59.628Z,41.80
2019-04-07T01:36:05.255Z,44.65
2019-04-07T01:37:10.905Z,47.23
2019-04-07T01:38:17.916Z,42.62
2019-04-07T01:39:23.169Z,44.00
2019-04-07T01:40:28.840Z,46.83
2019-04-07T01:41:39.065Z,49.25
2019-04-07T01:42:57.424Z,49.90
2019-04-07T01:44:21.653Z,54.13
2019-04-07T01:45:44.560Z,56.35
2019-04-07T01:47:14.662Z,54.75
2019-04-07T01:48:39.591Z,52.27
2019-04-07T01:49:53.923Z,54.75
2019-04-07T01:51:10.289Z,50.85
2019-04-07T01:52:34.843Z,51.55
2019-04-07T01:53:59.827Z,51.20
2019-04-07T01:55:36.363Z,52.43
2019-04-07T01:56:50.235Z,53.25
2019-04-07T01:58:20.215Z,54.23
2019-04-07T01:59:43.464Z,50.60
2019-04-07T02:01:06.567Z,51.10
2019-04-07T02:02:29.363Z,52.25
2019-04-07T02:03:46.308Z,49.10
2019-04-07T02:05:06.673Z,52.40
2019-04-07T02:06:31.120Z,50.28
2019-04-07T02:08:04.558Z,50.78
2019-04-07T02:09:22.607Z,49.93
2019-04-07T02:10:44.569Z,49.85
2019-04-07T02:12:07.288Z,49.77
2019-04-07T02:13:23.986Z,51.05
2019-04-07T02:14:44.497Z,48.68
2019-04-07T02:16:16.145Z,48.73
2019-04-07T02:17:39.406Z,47.88
2019-04-07T02:19:03.655Z,50.05
2019-04-07T02:20:38.914Z,46.53
2019-04-07T02:22:00.361Z,46.95
2019-04-07T02:23:33.929Z,48.30
2019-04-07T02:24:51.044Z,46.63
2019-04-07T02:26:10.318Z,48.70
2019-04-07T02:27:30.667Z,47.25
2019-04-07T02:28:54.861Z,47.17
2019-04-07T02:30:17.826Z,46.60
2019-04-07T02:31:31.925Z,48.83
2019-04-07T02:33:04.790Z,46.37
2019-04-07T02:34:32.028Z,45.60
2019-04-07T02:35:54.325Z,45.55
2019-04-07T02:37:22.555Z,46.13
2019-04-07T02:38:39.317Z,43.78
2019-04-07T02:40:04.866Z,47.62
2019-04-07T02:41:21.553Z,44.70
2019-04-07T02:43:03.797Z,45.85
2019-04-07T02:44:17.879Z,44.20
2019-04-07T02:45:41.214Z,47.85
2019-04-07T02:46:53.419Z,47.62
2019-04-07T02:48:12.404Z,48.25
2019-04-07T02:49:30.192Z,44.40
2019-04-07T02:50:50.920Z,46.28
2019-04-07T02:52:18.533Z,42.53
2019-04-07T02:53:48.569Z,43.00
2019-04-07T02:55:15.666Z,46.30
2019-04-07T02:56:55.935Z,46.00
2019-04-07T02:58:23.982Z,45.17
2019-04-07T02:59:42.963Z,46.33
2019-04-07T03:01:22.959Z,45.23
2019-04-07T03:02:34.698Z,47.33
2019-04-07T03:03:59.865Z,45.67
2019-04-07T03:05:22.281Z,42.83
2019-04-07T03:06:51.872Z,43.33
2019-04-07T03:08:30.521Z,45.67
2019-04-07T03:09:57.457Z,48.55
2019-04-07T03:11:16.394Z,48.83
2019-04-07T03:12:41.399Z,49.00
2019-04-07T03:13:52.218Z,50.58
2019-04-07T03:15:19.362Z,50.92
2019-04-07T03:16:43.812Z,50.12
2019-04-07T03:18:00.535Z,50.58
2019-04-07T03:19:26.406Z,50.08
2019-04-07T03:20:45.394Z,53.48
2019-04-07T03:22:12.713Z,50.10
2019-04-07T03:23:36.760Z,48.60
2019-04-07T03:25:08.074Z,51.20
2019-04-07T03:26:33.719Z,47.10
2019-04-07T03:27:51.572Z,50.30
2019-04-07T03:29:05.789Z,50.70
2019-04-07T03:30:38.656Z,49.45
2019-04-07T03:32:07.469Z,47.88
2019-04-07T03:33:37.729Z,45.60
2019-04-07T03:34:52.084Z,50.38
2019-04-07T03:36:05.763Z,48.42
2019-04-07T03:37:44.094Z,51.63
2019-04-07T03:39:15.779Z,53.63
2019-04-07T03:40:28.057Z,50.23
2019-04-07T03:41:42.389Z,50.78
2019-04-07T03:42:57.374Z,47.80
2019-04-07T03:44:20.387Z,47.58
2019-04-07T03:45:53.863Z,47.67
2019-04-07T03:47:24.414Z,43.87
2019-04-07T03:48:40.193Z,44.50
2019-04-07T03:50:03.462Z,45.50
2019-04-07T03:51:23.317Z,42.80
2019-04-07T03:52:54.386Z,43.15
2019-04-07T03:54:22.786Z,44.83
2019-04-07T03:55:43.800Z,43.20
2019-04-07T03:57:09.383Z,43.45
2019-04-07T03:58:34.311Z,42.85
2019-04-07T04:00:04.364Z,41.75
2019-04-07T04:01:35.497Z,46.77
2019-04-07T04:02:59.339Z,47.85
2019-04-07T04:04:22.353Z,47.45
2019-04-07T04:05:47.716Z,51.02
2019-04-07T04:07:27.540Z,51.20
2019-04-07T04:08:47.660Z,50.23
2019-04-07T04:10:30.525Z,50.98
2019-04-07T04:11:51.619Z,49.08
2019-04-07T04:13:05.044Z,47.62
2019-04-07T04:14:18.379Z,49.33
2019-04-07T04:15:31.286Z,49.25
2019-04-07T04:16:42.337Z,46.92
2019-04-07T04:17:48.148Z,45.70
2019-04-07T04:18:53.443Z,48.13
2019-04-07T04:19:58.657Z,46.92
2019-04-07T04:21:04.076Z,49.42
2019-04-07T04:22:09.182Z,47.38
2019-04-07T04:23:14.403Z,50.05
2019-04-07T04:24:19.942Z,48.58
2019-04-07T04:25:25.140Z,52.23
2019-04-07T04:26:30.730Z,49.45
2019-04-07T04:27:37.108Z,49.25
2019-04-07T04:28:42.995Z,52.85
2019-04-07T04:29:51.750Z,53.00
2019-04-07T04:30:56.548Z,51.28
2019-04-07T04:32:01.858Z,50.67
2019-04-07T04:33:06.998Z,42.17
2019-04-07T04:34:12.886Z,45.65
2019-04-07T04:35:17.926Z,51.08
2019-04-07T04:36:23.894Z,50.52
2019-04-07T04:37:40.333Z,52.73
2019-04-07T04:38:36.496Z,55.45
2019-04-07T04:39:41.699Z,56.28
2019-04-07T04:40:46.741Z,57.27
2019-04-07T04:41:52.038Z,59.18
2019-04-07T04:42:58.192Z,57.50
2019-04-07T04:44:03.897Z,59.20
2019-04-07T04:45:09.150Z,58.50
2019-04-07T04:46:15.089Z,58.33
2019-04-07T04:47:20.822Z,56.55
2019-04-07T04:48:26.031Z,56.28
2019-04-07T04:49:31.190Z,57.50
2019-04-07T04:50:37.249Z,56.55
2019-04-07T04:51:42.938Z,55.75
2019-04-07T04:52:48.748Z,59.03
2019-04-07T04:53:54.049Z,56.75
2019-04-07T04:54:59.208Z,56.02
2019-04-07T04:56:04.397Z,53.40
2019-04-07T04:57:09.501Z,54.10
2019-04-07T04:58:15.317Z,54.15
2019-04-07T04:59:21.533Z,55.60
2019-04-07T05:00:26.858Z,55.33
2019-04-07T05:01:33.111Z,57.73
2019-04-07T05:02:38.380Z,54.18
2019-04-07T05:03:44.580Z,52.73
2019-04-07T05:04:49.820Z,53.80
2019-04-07T05:05:55.396Z,54.27
2019-04-07T05:07:01.535Z,54.50
2019-04-07T05:08:06.956Z,53.38
2019-04-07T05:09:12.376Z,54.00
2019-04-07T05:10:17.600Z,52.90
2019-04-07T05:11:22.794Z,58.17
2019-04-07T05:12:28.634Z,56.02
2019-04-07T05:13:34.155Z,55.10
2019-04-07T05:14:41.206Z,51.00
2019-04-07T05:15:47.841Z,48.25
2019-04-07T05:16:53.575Z,49.90
2019-04-07T05:17:59.010Z,49.08
2019-04-07T05:19:04.459Z,50.00
2019-04-07T05:20:10.227Z,46.10
2019-04-07T05:21:16.176Z,47.73
2019-04-07T05:22:21.308Z,47.93
2019-04-07T05:23:26.501Z,46.35
2019-04-07T05:24:33.393Z,46.28
2019-04-07T05:25:39.094Z,43.70
2019-04-07T05:26:44.433Z,45.50
2019-04-07T05:27:49.475Z,44.75
2019-04-07T05:28:55.083Z,44.13
2019-04-07T05:30:00.171Z,46.08
2019-04-07T05:31:05.702Z,46.50
2019-04-07T05:32:11.074Z,43.38
2019-04-07T05:33:16.585Z,46.60
2019-04-07T05:34:22.433Z,44.58
2019-04-07T05:35:28.642Z,47.65
2019-04-07T05:36:33.831Z,46.00
2019-04-07T05:37:39.389Z,49.58
2019-04-07T05:38:44.650Z,46.60
2019-04-07T05:39:49.926Z,48.30
2019-04-07T05:40:55.343Z,47.17
2019-04-07T05:42:01.288Z,46.98
2019-04-07T05:43:07.127Z,45.73
2019-04-07T05:44:12.375Z,47.33
2019-04-07T05:45:17.468Z,45.92
2019-04-07T05:46:22.795Z,44.70
2019-04-07T05:47:28.053Z,45.90
2019-04-07T05:48:33.785Z,44.30
2019-04-07T05:49:39.068Z,43.75
2019-04-07T05:50:44.072Z,43.38
2019-04-07T05:51:49.093Z,41.80
2019-04-07T05:52:54.215Z,41.98
2019-04-07T05:53:59.360Z,41.53
2019-04-07T05:55:05.374Z,39.92
2019-04-07T05:56:11.078Z,41.33
2019-04-07T05:57:16.209Z,40.23
2019-04-07T05:58:21.361Z,39.25
2019-04-07T05:59:26.462Z,40.98
2019-04-07T06:00:31.600Z,40.60
2019-04-07T06:01:36.786Z,38.02
2019-04-07T06:02:41.973Z,36.35
2019-04-07T06:03:47.929Z,38.08
2019-04-07T06:04:53.490Z,37.40
2019-04-07T06:05:59.354Z,34.20
2019-04-07T06:07:04.647Z,36.63
2019-04-07T06:08:22.561Z,36.17
2019-04-07T06:09:19.742Z,36.48
2019-04-07T06:10:27.751Z,38.50
2019-04-07T06:11:34.029Z,36.40
2019-04-07T06:12:41.417Z,36.05
2019-04-07T06:13:45.576Z,38.67
2019-04-07T06:14:50.917Z,36.80
2019-04-07T06:15:56.520Z,36.55
2019-04-07T06:17:02.143Z,37.63
2019-04-07T06:18:07.460Z,34.48
2019-04-07T06:19:13.821Z,33.58
2019-04-07T06:20:19.144Z,32.45
2019-04-07T06:21:25.616Z,32.40
2019-04-07T06:22:31.330Z,32.08
2019-04-07T06:23:36.486Z,32.63
2019-04-07T06:24:41.709Z,31.30
2019-04-07T06:25:46.857Z,29.15
2019-04-07T06:26:53.760Z,31.12
2019-04-07T06:27:59.483Z,28.85
2019-04-07T06:29:04.859Z,27.20
2019-04-07T06:30:11.814Z,28.25
2019-04-07T06:31:18.454Z,29.55
2019-04-07T06:32:24.428Z,28.00
2019-04-07T06:33:29.744Z,29.00
2019-04-07T06:34:39.776Z,28.87
2019-04-07T06:35:45.080Z,28.07
2019-04-07T06:36:53.632Z,31.17
2019-04-07T06:37:58.641Z,30.25
2019-04-07T06:39:04.660Z,27.20
2019-04-07T06:40:10.040Z,30.12
2019-04-07T06:41:15.303Z,29.10
2019-04-07T06:42:20.857Z,32.00
2019-04-07T06:43:26.072Z,29.80
2019-04-07T06:44:31.245Z,28.38
2019-04-07T06:46:02.767Z,30.45
2019-04-07T06:47:17.614Z,29.45
2019-04-07T06:48:23.896Z,29.10
2019-04-07T06:49:48.195Z,30.52
2019-04-07T06:51:04.049Z,31.27
2019-04-07T06:52:18.437Z,31.68
2019-04-07T06:53:49.081Z,27.62
2019-04-07T06:55:30.055Z,29.95
2019-04-07T06:56:57.022Z,31.02
2019-04-07T06:58:19.930Z,30.05
2019-04-07T06:59:33.881Z,29.32
2019-04-07T07:01:03.084Z,31.23
2019-04-07T07:02:33.043Z,31.80
2019-04-07T07:04:08.622Z,31.33
2019-04-07T07:05:23.580Z,29.77
2019-04-07T07:06:48.332Z,31.65
2019-04-07T07:08:10.030Z,28.70
2019-04-07T07:09:51.948Z,28.77
2019-04-07T07:11:28.909Z,29.42
2019-04-07T07:12:52.624Z,30.50
2019-04-07T07:14:32.383Z,30.23
2019-04-07T07:15:40.003Z,29.52
2019-04-07T07:16:52.627Z,30.37
2019-04-07T07:18:29.479Z,29.27
2019-04-07T07:19:44.589Z,29.70
2019-04-07T07:21:08.857Z,30.00
2019-04-07T07:22:20.787Z,27.50
2019-04-07T07:23:30.948Z,29.30
2019-04-07T07:24:36.957Z,27.65
2019-04-07T07:25:42.125Z,27.22
2019-04-07T07:26:47.909Z,28.10
2019-04-07T07:27:53.431Z,29.05
2019-04-07T07:28:58.842Z,28.12
2019-04-07T07:30:04.648Z,29.42
2019-04-07T07:31:10.070Z,28.77
2019-04-07T07:32:15.924Z,28.65
2019-04-07T07:33:21.339Z,31.07
2019-04-07T07:34:27.257Z,30.37
2019-04-07T07:35:33.372Z,28.65
2019-04-07T07:36:38.648Z,31.20
2019-04-07T07:37:44.421Z,31.55
2019-04-07T07:38:58.300Z,31.77
2019-04-07T07:39:56.956Z,32.60
2019-04-07T07:41:03.425Z,33.13
2019-04-07T07:42:09.398Z,30.75
2019-04-07T07:43:14.795Z,32.28
2019-04-07T07:44:20.099Z,30.15
2019-04-07T07:45:25.303Z,31.23
2019-04-07T07:46:30.459Z,32.30
2019-04-07T07:47:36.283Z,31.55
2019-04-07T07:48:42.076Z,29.00
2019-04-07T07:49:48.210Z,30.68
2019-04-07T07:50:53.758Z,27.65
2019-04-07T07:51:59.282Z,29.42
2019-04-07T07:53:04.764Z,27.02
2019-04-07T07:54:10.030Z,27.70
2019-04-07T07:55:15.169Z,28.57
2019-04-07T07:56:20.245Z,28.30
2019-04-07T07:57:26.096Z,28.07
2019-04-07T07:58:33.315Z,28.20
2019-04-07T07:59:39.433Z,25.95
2019-04-07T08:00:45.989Z,28.55
2019-04-07T08:01:52.632Z,29.55
2019-04-07T08:02:59.189Z,28.15
2019-04-07T08:04:05.245Z,27.70
2019-04-07T08:05:11.439Z,26.85
2019-04-07T08:06:17.271Z,29.07
2019-04-07T08:07:22.564Z,27.30
2019-04-07T08:08:31.652Z,27.37
2019-04-07T08:09:56.766Z,27.70
2019-04-07T08:11:33.818Z,25.17
2019-04-07T08:12:51.943Z,25.52
2019-04-07T08:14:08.872Z,25.12
2019-04-07T08:15:30.939Z,26.12
2019-04-07T08:16:43.590Z,26.40
2019-04-07T08:18:08.726Z,24.15
2019-04-07T08:19:53.001Z,25.25
2019-04-07T08:21:12.300Z,25.92
2019-04-07T08:22:34.454Z,25.15
2019-04-07T08:23:47.117Z,24.60
2019-04-07T08:25:05.206Z,25.37
2019-04-07T08:26:24.341Z,27.40
2019-04-07T08:27:41.988Z,26.15
2019-04-07T08:28:59.067Z,26.57
2019-04-07T08:30:16.210Z,24.80
2019-04-07T08:31:33.759Z,26.10
2019-04-07T08:32:51.162Z,26.35
2019-04-07T08:34:08.871Z,26.00
2019-04-07T08:35:25.608Z,27.67
2019-04-07T08:36:44.481Z,26.97
2019-04-07T08:38:01.512Z,24.25
2019-04-07T08:39:22.921Z,25.72
2019-04-07T08:40:38.158Z,24.67
2019-04-07T08:41:55.049Z,27.45
2019-04-07T08:43:11.526Z,29.80
2019-04-07T08:44:30.440Z,26.27
2019-04-07T08:45:47.148Z,25.17
2019-04-07T08:47:03.735Z,27.00
2019-04-07T08:48:20.870Z,24.92
2019-04-07T08:49:38.265Z,28.00
2019-04-07T08:50:57.276Z,28.35
2019-04-07T08:52:13.460Z,27.93
2019-04-07T08:53:30.645Z,25.55
2019-04-07T08:54:50.384Z,26.10
2019-04-07T08:56:08.190Z,21.73
2019-04-07T08:57:27.254Z,23.32
2019-04-07T08:58:42.562Z,23.73
2019-04-07T08:59:59.372Z,18.73
2019-04-07T09:01:16.634Z,15.28
2019-04-07T09:02:34.723Z,15.65
2019-04-07T09:03:51.909Z,16.90
2019-04-07T09:05:10.409Z,14.55
2019-04-07T09:06:28.456Z,14.60
2019-04-07T09:07:45.983Z,12.00
2019-04-07T09:09:07.213Z,11.60
2019-04-07T09:10:29.174Z,11.08
2019-04-07T09:11:46.949Z,10.93
2019-04-07T09:13:08.502Z,12.45
2019-04-07T09:14:24.771Z,15.08
2019-04-07T09:17:46.143Z,14.07
2019-04-07T09:21:40.359Z,14.90
2019-04-07T09:23:19.065Z,17.05
2019-04-07T09:24:54.425Z,18.75
2019-04-07T09:26:22.650Z,16.48
2019-04-07T09:28:21.254Z,16.40
2019-04-07T09:29:48.803Z,17.62
2019-04-07T09:31:34.964Z,15.95
2019-04-07T09:33:19.413Z,15.95
2019-04-07T09:34:55.848Z,14.33
2019-04-07T09:36:36.390Z,14.58
2019-04-07T09:38:12.302Z,14.85
2019-04-07T09:39:57.051Z,13.88
2019-04-07T09:41:23.115Z,13.35
2019-04-07T09:43:03.140Z,14.75
2019-04-07T09:44:24.465Z,15.70
2019-04-07T09:46:02.833Z,17.55
2019-04-07T09:47:53.916Z,15.78
2019-04-07T09:49:29.951Z,17.12
2019-04-07T09:51:07.292Z,16.00
2019-04-07T09:52:45.125Z,14.65
2019-04-07T09:54:22.219Z,16.73
2019-04-07T09:56:17.289Z,14.43
2019-04-07T09:57:57.031Z,15.32
2019-04-07T09:59:54.509Z,13.50
2019-04-07T10:01:25.286Z,16.62
2019-04-07T10:03:11.717Z,11.63
2019-04-07T10:05:03.833Z,12.53
2019-04-07T10:06:39.773Z,11.30
2019-04-07T10:08:17.712Z,12.03
2019-04-07T10:10:14.326Z,9.43
2019-04-07T10:11:46.213Z,9.28
2019-04-07T10:13:36.126Z,12.30
2019-04-07T10:15:36.165Z,10.05
2019-04-07T10:17:22.257Z,10.58
2019-04-07T10:18:57.693Z,10.82
2019-04-07T10:20:38.376Z,11.40
2019-04-07T10:22:34.107Z,10.68
2019-04-07T10:24:16.910Z,10.48
2019-04-07T10:27:54.468Z,11.22
2019-04-07T10:29:35.340Z,13.78
2019-04-07T10:31:24.619Z,13.98
2019-04-07T10:33:09.741Z,13.10
2019-04-07T10:34:46.002Z,12.05
2019-04-07T10:36:42.503Z,11.50
2019-04-07T10:38:17.965Z,11.88
2019-04-07T10:39:46.236Z,12.23
2019-04-07T10:41:42.818Z,12.58
2019-04-07T10:43:19.545Z,13.18
2019-04-07T10:45:08.995Z,10.70
2019-04-07T10:46:50.409Z,10.58
2019-04-07T10:48:26.866Z,11.22
2019-04-07T10:50:01.541Z,9.50
2019-04-07T10:51:45.840Z,12.07
2019-04-07T10:53:32.239Z,11.60
2019-04-07T10:55:03.698Z,11.57
2019-04-07T10:56:28.860Z,10.63
2019-04-07T10:58:17.018Z,9.53
2019-04-07T10:59:53.304Z,11.45
2019-04-07T11:01:36.244Z,12.63
2019-04-07T11:03:13.171Z,11.83
2019-04-07T11:04:55.203Z,12.00
2019-04-07T11:06:36.534Z,13.72
2019-04-07T11:08:11.949Z,13.20
2019-04-07T11:09:47.538Z,11.03
2019-04-07T11:11:23.492Z,9.70
2019-04-07T11:13:02.926Z,11.45
2019-04-07T11:14:46.720Z,12.65
2019-04-07T11:16:26.280Z,12.40
2019-04-07T11:18:08.760Z,12.90
2019-04-07T11:19:47.800Z,13.25
2019-04-07T11:21:44.111Z,11.40
2019-04-07T11:23:22.970Z,10.90
2019-04-07T11:25:00.084Z,12.58
2019-04-07T11:26:35.430Z,13.60
2019-04-07T11:28:11.195Z,13.08
2019-04-07T11:29:49.714Z,15.45
2019-04-07T11:31:25.575Z,14.25
2019-04-07T11:32:52.225Z,13.60
2019-04-07T11:34:19.385Z,13.50
2019-04-07T11:36:18.020Z,13.45
2019-04-07T11:37:58.450Z,12.93
2019-04-07T11:39:54.560Z,12.68
2019-04-07T11:41:31.721Z,13.70
2019-04-07T11:43:07.517Z,15.80
2019-04-07T11:44:46.724Z,14.35
2019-04-07T11:46:43.161Z,14.35
2019-04-07T11:48:19.386Z,14.70
2019-04-07T11:49:45.995Z,13.88
2019-04-07T11:51:41.223Z,14.33
2019-04-07T11:53:16.738Z,15.90
2019-04-07T11:54:49.188Z,16.27
2019-04-07T11:56:31.108Z,14.35
2019-04-07T11:58:14.351Z,14.68
2019-04-07T11:59:54.095Z,15.30
2019-04-07T12:01:49.700Z,16.52
2019-04-07T12:03:31.009Z,16.77
2019-04-07T12:05:09.839Z,15.00
2019-04-07T12:06:46.688Z,15.43
2019-04-07T12:08:36.131Z,15.65
2019-04-07T12:10:07.170Z,16.32
2019-04-07T12:11:42.598Z,16.50
2019-04-07T12:13:16.378Z,16.62
2019-04-07T12:15:12.949Z,15.93
2019-04-07T12:16:41.350Z,15.65
2019-04-07T12:18:23.736Z,16.07
2019-04-07T12:20:00.849Z,15.03
2019-04-07T12:21:37.532Z,14.00
2019-04-07T12:23:23.344Z,15.72
2019-04-07T12:25:14.674Z,14.43
2019-04-07T12:26:50.635Z,12.37
2019-04-07T12:28:33.454Z,13.40
2019-04-07T12:30:10.075Z,12.53
2019-04-07T12:31:46.487Z,13.78
2019-04-07T12:33:19.044Z,13.35
2019-04-07T12:35:08.245Z,12.00
2019-04-07T12:36:35.065Z,12.05
2019-04-07T12:38:12.319Z,13.58
2019-04-07T12:39:49.523Z,13.25
2019-04-07T12:41:42.577Z,14.40
2019-04-07T12:43:13.750Z,9.88
2019-04-07T12:44:53.889Z,8.50
2019-04-07T12:46:21.012Z,8.40
2019-04-07T12:48:03.466Z,9.78
2019-04-07T12:49:32.918Z,8.63
2019-04-07T12:51:06.288Z,9.93
2019-04-07T12:52:46.278Z,9.20
2019-04-07T12:54:35.277Z,8.95
2019-04-07T12:56:23.111Z,8.83
2019-04-07T12:57:58.433Z,9.18
2019-04-07T12:59:27.282Z,9.85
2019-04-07T13:01:09.818Z,8.98
2019-04-07T13:02:55.426Z,8.50
2019-04-07T13:04:40.779Z,8.03
2019-04-07T13:06:22.177Z,8.20
2019-04-07T13:08:01.570Z,8.25
2019-04-07T13:09:43.800Z,7.33
2019-04-07T13:11:11.785Z,9.05
2019-04-07T13:13:06.908Z,7.80
2019-04-07T13:14:46.016Z,9.10
2019-04-07T13:16:42.664Z,8.60
2019-04-07T13:18:13.516Z,8.70
2019-04-07T13:19:58.813Z,8.73
2019-04-07T13:21:40.726Z,8.43
2019-04-07T13:23:19.212Z,9.05
2019-04-07T13:24:45.458Z,9.80
2019-04-07T13:26:40.382Z,9.25
2019-04-07T13:28:11.408Z,9.30
2019-04-07T13:29:55.339Z,8.80
2019-04-07T13:31:22.848Z,9.05
2019-04-07T13:32:59.226Z,9.80
2019-04-07T13:34:52.233Z,9.38
2019-04-07T13:36:28.400Z,9.43
2019-04-07T13:38:05.486Z,8.50
2019-04-07T13:39:53.200Z,8.63
2019-04-07T13:41:42.366Z,8.10
2019-04-07T13:43:13.354Z,8.98
2019-04-07T13:45:14.055Z,8.08
2019-04-07T13:47:08.660Z,8.03
2019-04-07T13:48:52.160Z,7.65
2019-04-07T13:50:44.860Z,7.72
2019-04-07T13:52:22.209Z,7.00
2019-04-07T13:54:05.430Z,7.70
2019-04-07T13:55:43.668Z,7.50
2019-04-07T13:57:38.174Z,7.15
2019-04-07T13:59:04.059Z,7.83
2019-04-07T14:02:19.693Z,7.65
2019-04-07T14:04:02.463Z,7.22
2019-04-07T14:05:34.267Z,7.45
2019-04-07T14:07:30.676Z,8.00
2019-04-07T14:08:50.624Z,6.75
2019-04-07T14:10:13.155Z,7.45
2019-04-07T14:12:01.517Z,7.45
2019-04-07T14:13:14.875Z,6.80
2019-04-07T14:14:44.984Z,6.45
2019-04-07T14:16:09.476Z,7.85
2019-04-07T14:17:35.149Z,8.10
2019-04-07T14:18:59.468Z,8.45
2019-04-07T14:20:11.623Z,9.38
2019-04-07T14:21:40.336Z,8.03
2019-04-07T14:23:05.306Z,8.20
2019-04-07T14:24:46.074Z,8.40
2019-04-07T14:26:16.819Z,8.18
2019-04-07T14:27:38.370Z,8.43
2019-04-07T14:29:00.984Z,7.90
2019-04-07T14:30:26.843Z,7.90
2019-04-07T14:31:51.669Z,7.35
2019-04-07T14:33:15.466Z,7.37
2019-04-07T14:34:27.308Z,6.95
2019-04-07T14:35:47.777Z,6.85
2019-04-07T14:37:15.298Z,7.60
2019-04-07T14:38:41.285Z,6.42
2019-04-07T14:40:05.668Z,6.83
2019-04-07T14:41:38.832Z,7.45
2019-04-07T14:43:05.685Z,7.70
2019-04-07T14:44:26.172Z,7.10
2019-04-07T14:45:40.636Z,6.87
2019-04-07T14:47:08.727Z,6.90
2019-04-07T14:48:37.513Z,7.10
2019-04-07T14:50:11.900Z,6.50
2019-04-07T14:51:46.081Z,7.42
2019-04-07T14:53:09.099Z,7.05
2019-04-07T14:54:27.136Z,6.75
2019-04-07T14:55:50.912Z,6.53
2019-04-07T14:57:30.934Z,6.30
2019-04-07T14:58:58.192Z,6.15
2019-04-07T15:00:23.587Z,7.08
2019-04-07T15:01:45.761Z,6.22
2019-04-07T15:02:51.064Z,6.60
2019-04-07T15:03:56.500Z,6.97
2019-04-07T15:05:07.177Z,6.20
2019-04-07T15:06:12.296Z,6.80
2019-04-07T15:07:57.904Z,8.13
2019-04-07T15:09:16.566Z,6.97
2019-04-07T15:10:28.294Z,8.03
2019-04-07T15:11:43.373Z,7.35
2019-04-07T15:12:52.425Z,7.60
2019-04-07T15:14:00.371Z,7.17
2019-04-07T15:15:08.808Z,7.95
2019-04-07T15:16:11.551Z,7.55
2019-04-07T15:17:17.654Z,6.55
2019-04-07T15:18:22.999Z,7.05
2019-04-07T15:19:28.818Z,6.58
2019-04-07T15:20:34.428Z,6.80
2019-04-07T15:21:40.125Z,7.17
2019-04-07T15:22:47.280Z,6.17
2019-04-07T15:23:52.976Z,7.12
2019-04-07T15:24:59.192Z,9.23
2019-04-07T15:26:05.326Z,6.75
2019-04-07T15:27:11.270Z,6.95
2019-04-07T15:28:17.407Z,7.30
2019-04-07T15:29:23.217Z,6.28
2019-04-07T15:30:28.593Z,7.45
2019-04-07T15:31:33.762Z,6.90
2019-04-07T15:32:39.478Z,6.70
2019-04-07T15:33:46.633Z,5.87
2019-04-07T15:34:52.611Z,6.03
2019-04-07T15:35:58.823Z,6.92
2019-04-07T15:37:04.428Z,5.95
2019-04-07T15:38:09.813Z,6.10
2019-04-07T15:39:15.141Z,6.83
2019-04-07T15:40:20.412Z,5.60
2019-04-07T15:41:25.819Z,5.35
2019-04-07T15:42:38.787Z,6.87
2019-04-07T15:43:38.331Z,5.70
2019-04-07T15:44:43.743Z,6.45
2019-04-07T15:45:48.905Z,6.70
2019-04-07T15:46:54.569Z,6.87
2019-04-07T15:48:00.677Z,6.80
2019-04-07T15:49:06.833Z,6.67
2019-04-07T15:50:13.789Z,6.17
2019-04-07T15:51:20.149Z,6.45
2019-04-07T15:52:25.276Z,6.78
2019-04-07T15:53:30.905Z,6.35
2019-04-07T15:54:37.066Z,5.65
2019-04-07T15:55:51.625Z,6.30
2019-04-07T15:56:51.568Z,6.10
2019-04-07T15:57:58.371Z,5.75
2019-04-07T15:59:03.667Z,6.17
2019-04-07T16:00:10.029Z,6.25
2019-04-07T16:01:16.073Z,6.22
2019-04-07T16:02:21.409Z,6.55
2019-04-07T16:03:26.645Z,5.83
2019-04-07T16:04:32.008Z,5.70
2019-04-07T16:05:42.245Z,6.20
2019-04-07T16:06:47.119Z,6.05
2019-04-07T16:07:53.645Z,6.08
2019-04-07T16:09:00.198Z,5.30
2019-04-07T16:10:10.023Z,5.75
2019-04-07T16:11:16.594Z,5.35
2019-04-07T16:12:22.967Z,5.50
2019-04-07T16:13:29.198Z,6.25
2019-04-07T16:14:35.189Z,5.90
2019-04-07T16:15:43.590Z,6.00
2019-04-07T16:16:47.534Z,6.40
2019-04-07T16:17:52.744Z,5.90
2019-04-07T16:18:57.878Z,5.83
2019-04-07T16:20:03.729Z,5.97
2019-04-07T16:21:10.323Z,6.40
2019-04-07T16:22:16.861Z,6.20
2019-04-07T16:23:22.279Z,5.90
2019-04-07T16:24:29.261Z,6.35
2019-04-07T16:25:34.521Z,5.55
2019-04-07T16:26:39.939Z,6.12
2019-04-07T16:27:45.737Z,6.45
2019-04-07T16:28:51.920Z,7.12
2019-04-07T16:29:58.020Z,9.98
2019-04-07T16:31:03.353Z,6.72
2019-04-07T16:32:09.314Z,5.85
2019-04-07T16:33:15.228Z,6.75
2019-04-07T16:34:20.691Z,7.05
2019-04-07T16:35:26.365Z,6.22
2019-04-07T16:36:32.464Z,7.05
2019-04-07T16:37:37.733Z,7.17
2019-04-07T16:38:43.194Z,6.08
2019-04-07T16:39:48.351Z,6.30
2019-04-07T16:40:53.869Z,6.00
2019-04-07T16:41:59.112Z,10.18
2019-04-07T16:43:11.590Z,5.30
2019-04-07T16:44:11.833Z,5.25
2019-04-07T16:45:18.000Z,4.45
2019-04-07T16:46:24.694Z,5.47
2019-04-07T16:47:34.592Z,5.70
2019-04-07T16:48:40.075Z,5.62
2019-04-07T16:49:46.682Z,5.60
2019-04-07T16:50:54.776Z,6.30
2019-04-07T16:52:01.256Z,5.70
2019-04-07T16:53:07.664Z,5.75
2019-04-07T16:54:13.243Z,5.30
2019-04-07T16:55:35.955Z,4.78
2019-04-07T16:56:41.410Z,4.78
2019-04-07T16:57:46.664Z,5.47
2019-04-07T16:58:52.275Z,4.70
2019-04-07T16:59:58.308Z,4.50
2019-04-07T17:01:04.549Z,5.12
2019-04-07T17:02:10.284Z,4.40
2019-04-07T17:03:15.922Z,5.15
2019-04-07T17:04:21.247Z,4.87
2019-04-07T17:05:26.489Z,4.45
2019-04-07T17:06:35.416Z,4.75
2019-04-07T17:07:38.998Z,4.87
2019-04-07T17:08:44.236Z,4.30